Berwick, Iowa
Current Conditions -  °F | °C
As of 12:35 PM on Wednesday 26 Nov 2014 (Local Time) from KIKV Reporting Station
Light Snow Light Snow  
Wind Chill: 21°   Ceiling: 700
Heat Index: 30°   Visibility: 2mi
Dew Point: 28°   Wind: 10mph
Humidity: 93%   Direction: 40°NE
Pressure: 29.99"   Gusts: NA
Location:  41.66°N, 93.55°W
Report Text: KIKV 261835Z AUTO 04009KT 2SM -SN BKN007 BKN011 BKN016 M01/M02 A2999 RMK AO2
Loading
Personal Weather Stations






























Interactive Weather Map New forecast layout! Learn more

10-Day Weather Forecast

Advertisements
Track Severe Weather on mobile